sensor_id;sensor_type;location;lat;lon;timestamp;pressure;altitude;pressure_sealevel;temperature;humidity
48614;BME280;34408;51.426;5.444;2023-07-08T00:00:14;101549.19;;;24.05;40.70
48614;BME280;34408;51.426;5.444;2023-07-08T00:02:44;101542.06;;;24.04;40.66
48614;BME280;34408;51.426;5.444;2023-07-08T00:05:12;101537.97;;;24.01;40.47
48614;BME280;34408;51.426;5.444;2023-07-08T00:07:41;101532.78;;;24.00;40.57
48614;BME280;34408;51.426;5.444;2023-07-08T00:10:13;101534.19;;;23.97;40.80
48614;BME280;34408;51.426;5.444;2023-07-08T00:12:41;101530.91;;;23.95;40.55
48614;BME280;34408;51.426;5.444;2023-07-08T00:15:09;101527.66;;;23.93;40.64
48614;BME280;34408;51.426;5.444;2023-07-08T00:17:37;101527.44;;;23.90;40.55
48614;BME280;34408;51.426;5.444;2023-07-08T00:20:10;101525.78;;;23.89;40.98
48614;BME280;34408;51.426;5.444;2023-07-08T00:22:39;101524.44;;;23.86;41.09
48614;BME280;34408;51.426;5.444;2023-07-08T00:25:07;101528.59;;;23.84;40.72
48614;BME280;34408;51.426;5.444;2023-07-08T00:27:35;101525.63;;;23.80;41.06
48614;BME280;34408;51.426;5.444;2023-07-08T00:30:09;101522.34;;;23.78;40.84
48614;BME280;34408;51.426;5.444;2023-07-08T00:32:41;101518.28;;;23.76;40.95
48614;BME280;34408;51.426;5.444;2023-07-08T00:35:09;101517.75;;;23.74;41.06
48614;BME280;34408;51.426;5.444;2023-07-08T00:37:37;101515.31;;;23.72;41.10
48614;BME280;34408;51.426;5.444;2023-07-08T00:40:11;101524.13;;;23.69;41.32
48614;BME280;34408;51.426;5.444;2023-07-08T00:42:40;101517.28;;;23.66;41.06
48614;BME280;34408;51.426;5.444;2023-07-08T00:45:11;101511.28;;;23.64;41.19
48614;BME280;34408;51.426;5.444;2023-07-08T00:47:44;101508.81;;;23.63;41.54
48614;BME280;34408;51.426;5.444;2023-07-08T00:50:13;101508.59;;;23.59;41.29
48614;BME280;34408;51.426;5.444;2023-07-08T00:52:44;101505.03;;;23.59;41.19
48614;BME280;34408;51.426;5.444;2023-07-08T00:55:11;101504.81;;;23.55;41.49
48614;BME280;34408;51.426;5.444;2023-07-08T00:57:40;101503.16;;;23.54;41.38
48614;BME280;34408;51.426;5.444;2023-07-08T01:00:11;101504.53;;;23.52;41.29
48614;BME280;34408;51.426;5.444;2023-07-08T01:02:42;101502.09;;;23.50;41.42
48614;BME280;34408;51.426;5.444;2023-07-08T01:05:13;101505.13;;;23.49;41.76
48614;BME280;34408;51.426;5.444;2023-07-08T01:07:44;101506.22;;;23.48;41.51
48614;BME280;34408;51.426;5.444;2023-07-08T01:10:14;101513.66;;;23.47;41.72
48614;BME280;34408;51.426;5.444;2023-07-08T01:12:42;101503.78;;;23.46;41.55
48614;BME280;34408;51.426;5.444;2023-07-08T01:15:12;101508.44;;;23.46;41.36
48614;BME280;34408;51.426;5.444;2023-07-08T01:17:41;101500.81;;;23.43;41.73
48614;BME280;34408;51.426;5.444;2023-07-08T01:20:10;101509.31;;;23.41;41.68
48614;BME280;34408;51.426;5.444;2023-07-08T01:22:41;101504.13;;;23.40;41.75
48614;BME280;34408;51.426;5.444;2023-07-08T01:25:09;101504.44;;;23.38;41.91
48614;BME280;34408;51.426;5.444;2023-07-08T01:27:38;101496.50;;;23.36;41.86
48614;BME280;34408;51.426;5.444;2023-07-08T01:30:07;101495.16;;;23.34;41.81
48614;BME280;34408;51.426;5.444;2023-07-08T01:32:36;101500.91;;;23.32;41.93
48614;BME280;34408;51.426;5.444;2023-07-08T01:35:05;101507.50;;;23.31;41.88
48614;BME280;34408;51.426;5.444;2023-07-08T01:37:34;101489.41;;;23.30;41.79
48614;BME280;34408;51.426;5.444;2023-07-08T01:42:59;101496.59;;;23.26;42.02
48614;BME280;34408;51.426;5.444;2023-07-08T01:45:28;101497.72;;;23.25;41.71
48614;BME280;34408;51.426;5.444;2023-07-08T01:47:57;101498.81;;;23.24;41.70
48614;BME280;34408;51.426;5.444;2023-07-08T01:50:26;101492.28;;;23.20;41.59
48614;BME280;34408;51.426;5.444;2023-07-08T01:52:55;101490.63;;;23.19;41.79
48614;BME280;34408;51.426;5.444;2023-07-08T01:55:24;101495.31;;;23.19;42.12
48614;BME280;34408;51.426;5.444;2023-07-08T01:57:52;101481.88;;;23.17;41.95
48614;BME280;34408;51.426;5.444;2023-07-08T02:00:21;101484.09;;;23.15;42.17
48614;BME280;34408;51.426;5.444;2023-07-08T02:02:49;101479.72;;;23.14;42.07
48614;BME280;34408;51.426;5.444;2023-07-08T02:05:17;101473.72;;;23.12;42.10
48614;BME280;34408;51.426;5.444;2023-07-08T02:07:45;101477.03;;;23.09;42.04
48614;BME280;34408;51.426;5.444;2023-07-08T02:10:13;101473.47;;;23.09;42.04
48614;BME280;34408;51.426;5.444;2023-07-08T02:12:40;101467.47;;;23.07;42.33
48614;BME280;34408;51.426;5.444;2023-07-08T02:15:09;101465.00;;;23.05;42.33
48614;BME280;34408;51.426;5.444;2023-07-08T02:17:38;101458.19;;;23.02;42.02
48614;BME280;34408;51.426;5.444;2023-07-08T02:20:06;101456.03;;;22.99;42.07
48614;BME280;34408;51.426;5.444;2023-07-08T02:22:34;101457.94;;;22.99;42.15
48614;BME280;34408;51.426;5.444;2023-07-08T02:25:03;101454.69;;;22.97;42.56
48614;BME280;34408;51.426;5.444;2023-07-08T02:27:31;101452.22;;;22.95;42.21
48614;BME280;34408;51.426;5.444;2023-07-08T02:29:59;101447.03;;;22.94;42.37
48614;BME280;34408;51.426;5.444;2023-07-08T02:32:26;101442.94;;;22.91;42.36
48614;BME280;34408;51.426;5.444;2023-07-08T02:34:55;101431.16;;;22.91;42.47
48614;BME280;34408;51.426;5.444;2023-07-08T02:37:23;101435.31;;;22.88;42.44
48614;BME280;34408;51.426;5.444;2023-07-08T02:39:51;101436.72;;;22.86;42.33
48614;BME280;34408;51.426;5.444;2023-07-08T02:42:18;101438.91;;;22.84;42.26
48614;BME280;34408;51.426;5.444;2023-07-08T02:44:46;101435.66;;;22.82;42.38
48614;BME280;34408;51.426;5.444;2023-07-08T02:47:14;101437.56;;;22.81;42.43
48614;BME280;34408;51.426;5.444;2023-07-08T02:49:41;101431.56;;;22.79;42.56
48614;BME280;34408;51.426;5.444;2023-07-08T02:52:10;101441.97;;;22.77;42.62
48614;BME280;34408;51.426;5.444;2023-07-08T02:54:38;101445.00;;;22.76;42.46
48614;BME280;34408;51.426;5.444;2023-07-08T02:57:06;101448.84;;;22.74;42.46
48614;BME280;34408;51.426;5.444;2023-07-08T02:59:34;101449.66;;;22.75;42.32
48614;BME280;34408;51.426;5.444;2023-07-08T03:02:01;101449.94;;;22.73;42.46
48614;BME280;34408;51.426;5.444;2023-07-08T03:04:30;101457.34;;;22.73;42.82
48614;BME280;34408;51.426;5.444;2023-07-08T03:07:01;101460.38;;;22.71;42.70
48614;BME280;34408;51.426;5.444;2023-07-08T03:09:29;101451.34;;;22.71;42.72
48614;BME280;34408;51.426;5.444;2023-07-08T03:11:58;101455.19;;;22.70;42.86
48614;BME280;34408;51.426;5.444;2023-07-08T03:14:27;101459.84;;;22.69;42.67
48614;BME280;34408;51.426;5.444;2023-07-08T03:16:54;101460.44;;;22.66;42.69
48614;BME280;34408;51.426;5.444;2023-07-08T03:19:22;101461.53;;;22.65;42.88
48614;BME280;34408;51.426;5.444;2023-07-08T03:21:49;101462.63;;;22.64;43.10
48614;BME280;34408;51.426;5.444;2023-07-08T03:24:17;101466.47;;;22.63;42.91
48614;BME280;34408;51.426;5.444;2023-07-08T03:26:46;101464.03;;;22.62;42.78
48614;BME280;34408;51.426;5.444;2023-07-08T03:29:15;101469.78;;;22.60;42.70
48614;BME280;34408;51.426;5.444;2023-07-08T03:31:43;101467.34;;;22.59;42.96
48614;BME280;34408;51.426;5.444;2023-07-08T03:34:11;101468.44;;;22.58;43.04
48614;BME280;34408;51.426;5.444;2023-07-08T03:36:40;101469.56;;;22.57;43.12
48614;BME280;34408;51.426;5.444;2023-07-08T03:39:10;101467.09;;;22.55;42.81
48614;BME280;34408;51.426;5.444;2023-07-08T03:41:38;101469.34;;;22.53;42.93
48614;BME280;34408;51.426;5.444;2023-07-08T03:44:07;101470.44;;;22.52;42.97
48614;BME280;34408;51.426;5.444;2023-07-08T03:46:35;101467.19;;;22.50;43.01
48614;BME280;34408;51.426;5.444;2023-07-08T03:49:02;101471.31;;;22.48;43.08
48614;BME280;34408;51.426;5.444;2023-07-08T03:51:30;101474.63;;;22.45;43.01
48614;BME280;34408;51.426;5.444;2023-07-08T03:53:59;101472.16;;;22.43;43.06
48614;BME280;34408;51.426;5.444;2023-07-08T03:56:26;101468.88;;;22.41;42.82
48614;BME280;34408;51.426;5.444;2023-07-08T03:58:54;101469.19;;;22.39;43.39
48614;BME280;34408;51.426;5.444;2023-07-08T04:01:23;101485.59;;;22.39;43.48
48614;BME280;34408;51.426;5.444;2023-07-08T04:03:52;101480.69;;;22.36;43.32
48614;BME280;34408;51.426;5.444;2023-07-08T04:06:20;101478.25;;;22.35;43.44
48614;BME280;34408;51.426;5.444;2023-07-08T04:08:48;101481.28;;;22.33;43.65
48614;BME280;34408;51.426;5.444;2023-07-08T04:11:16;101475.53;;;22.30;43.56
48614;BME280;34408;51.426;5.444;2023-07-08T04:13:44;101479.09;;;22.30;43.54
48614;BME280;34408;51.426;5.444;2023-07-08T04:16:13;101487.06;;;22.27;43.57
48614;BME280;34408;51.426;5.444;2023-07-08T04:18:47;101485.16;;;22.27;43.73
48614;BME280;34408;51.426;5.444;2023-07-08T04:21:17;101488.19;;;22.26;43.67
48614;BME280;34408;51.426;5.444;2023-07-08T04:23:47;101487.63;;;22.24;43.90
48614;BME280;34408;51.426;5.444;2023-07-08T04:26:15;101478.88;;;22.22;43.99
48614;BME280;34408;51.426;5.444;2023-07-08T04:28:43;101480.81;;;22.21;43.82
48614;BME280;34408;51.426;5.444;2023-07-08T04:31:10;101477.53;;;22.19;43.79
48614;BME280;34408;51.426;5.444;2023-07-08T04:33:38;101482.47;;;22.17;44.01
48614;BME280;34408;51.426;5.444;2023-07-08T04:36:10;101482.47;;;22.17;43.93
48614;BME280;34408;51.426;5.444;2023-07-08T04:38:39;101473.72;;;22.15;44.08
48614;BME280;34408;51.426;5.444;2023-07-08T04:41:07;101477.56;;;22.14;44.31
48614;BME280;34408;51.426;5.444;2023-07-08T04:43:35;101471.28;;;22.14;44.22
48614;BME280;34408;51.426;5.444;2023-07-08T04:46:02;101472.38;;;22.13;44.25
48614;BME280;34408;51.426;5.444;2023-07-08T04:48:31;101484.44;;;22.12;44.31
48614;BME280;34408;51.426;5.444;2023-07-08T04:50:59;101480.06;;;22.11;44.21
48614;BME280;34408;51.426;5.444;2023-07-08T04:53:28;101480.34;;;22.09;43.81
48614;BME280;34408;51.426;5.444;2023-07-08T04:55:56;101476.78;;;22.08;44.10
48614;BME280;34408;51.426;5.444;2023-07-08T04:58:23;101491.28;;;22.09;44.11
48614;BME280;34408;51.426;5.444;2023-07-08T05:00:51;101478.72;;;22.08;44.27
48614;BME280;34408;51.426;5.444;2023-07-08T05:03:18;101481.44;;;22.08;44.33
48614;BME280;34408;51.426;5.444;2023-07-08T05:05:46;101477.59;;;22.09;44.20
48614;BME280;34408;51.426;5.444;2023-07-08T05:08:14;101481.16;;;22.10;44.05
48614;BME280;34408;51.426;5.444;2023-07-08T05:10:42;101486.34;;;22.11;44.21
48614;BME280;34408;51.426;5.444;2023-07-08T05:13:10;101478.97;;;22.12;43.97
48614;BME280;34408;51.426;5.444;2023-07-08T05:15:38;101480.88;;;22.11;44.03
48614;BME280;34408;51.426;5.444;2023-07-08T05:18:05;101480.59;;;22.13;44.07
48614;BME280;34408;51.426;5.444;2023-07-08T05:20:33;101485.78;;;22.14;44.33
48614;BME280;34408;51.426;5.444;2023-07-08T05:23:03;101485.50;;;22.16;44.37
48614;BME280;34408;51.426;5.444;2023-07-08T05:25:30;101481.38;;;22.18;44.17
48614;BME280;34408;51.426;5.444;2023-07-08T05:28:00;101477.53;;;22.19;44.36
48614;BME280;34408;51.426;5.444;2023-07-08T05:30:27;101471.78;;;22.21;44.24
48614;BME280;34408;51.426;5.444;2023-07-08T05:32:55;101472.31;;;22.23;44.46
48614;BME280;34408;51.426;5.444;2023-07-08T05:35:22;101478.31;;;22.25;44.53
48614;BME280;34408;51.426;5.444;2023-07-08T05:37:50;101469.81;;;22.26;44.63
48614;BME280;34408;51.426;5.444;2023-07-08T05:40:18;101472.28;;;22.28;44.41
48614;BME280;34408;51.426;5.444;2023-07-08T05:42:45;101469.25;;;22.29;44.59
48614;BME280;34408;51.426;5.444;2023-07-08T05:45:14;101475.25;;;22.31;44.56
48614;BME280;34408;51.426;5.444;2023-07-08T05:47:42;101464.03;;;22.33;44.56
48614;BME280;34408;51.426;5.444;2023-07-08T05:50:10;101472.78;;;22.35;44.71
48614;BME280;34408;51.426;5.444;2023-07-08T05:52:37;101467.00;;;22.36;44.72
48614;BME280;34408;51.426;5.444;2023-07-08T05:55:05;101467.00;;;22.36;44.71
48614;BME280;34408;51.426;5.444;2023-07-08T05:57:33;101463.16;;;22.37;45.16
48614;BME280;34408;51.426;5.444;2023-07-08T06:00:00;101472.72;;;22.40;45.29
48614;BME280;34408;51.426;5.444;2023-07-08T06:02:29;101472.72;;;22.40;45.52
48614;BME280;34408;51.426;5.444;2023-07-08T06:04:57;101477.09;;;22.41;45.50
48614;BME280;34408;51.426;5.444;2023-07-08T06:07:25;101479.56;;;22.43;45.49
48614;BME280;34408;51.426;5.444;2023-07-08T06:09:52;101479.28;;;22.44;45.68
48614;BME280;34408;51.426;5.444;2023-07-08T06:12:22;101486.38;;;22.45;45.70
48614;BME280;34408;51.426;5.444;2023-07-08T06:14:50;101486.94;;;22.47;45.69
48614;BME280;34408;51.426;5.444;2023-07-08T06:17:17;101490.19;;;22.49;45.59
48614;BME280;34408;51.426;5.444;2023-07-08T06:19:46;101481.41;;;22.52;45.55
48614;BME280;34408;51.426;5.444;2023-07-08T06:22:14;101486.56;;;22.54;45.33
48614;BME280;34408;51.426;5.444;2023-07-08T06:25:02;101476.97;;;22.56;45.41
48614;BME280;34408;51.426;5.444;2023-07-08T06:27:29;101486.53;;;22.59;45.55
48614;BME280;34408;51.426;5.444;2023-07-08T06:29:57;101484.31;;;22.61;45.42
48614;BME280;34408;51.426;5.444;2023-07-08T06:32:24;101486.47;;;22.64;45.25
48614;BME280;34408;51.426;5.444;2023-07-08T06:34:53;101490.56;;;22.66;45.56
48614;BME280;34408;51.426;5.444;2023-07-08T06:37:21;101490.00;;;22.69;45.47
48614;BME280;34408;51.426;5.444;2023-07-08T06:39:49;101485.88;;;22.72;45.43
48614;BME280;34408;51.426;5.444;2023-07-08T06:42:16;101491.88;;;22.74;45.25
48614;BME280;34408;51.426;5.444;2023-07-08T06:44:44;101485.81;;;22.77;45.16
48614;BME280;34408;51.426;5.444;2023-07-08T06:47:19;101495.41;;;22.80;45.54
48614;BME280;34408;51.426;5.444;2023-07-08T06:49:48;101486.09;;;22.81;45.48
48614;BME280;34408;51.426;5.444;2023-07-08T06:52:17;101487.44;;;22.83;45.30
48614;BME280;34408;51.426;5.444;2023-07-08T06:54:44;101476.19;;;22.85;45.60
48614;BME280;34408;51.426;5.444;2023-07-08T06:57:12;101472.34;;;22.86;45.36
48614;BME280;34408;51.426;5.444;2023-07-08T06:59:39;101474.78;;;22.87;45.24
48614;BME280;34408;51.426;5.444;2023-07-08T07:02:07;101478.06;;;22.89;45.44
48614;BME280;34408;51.426;5.444;2023-07-08T07:04:35;101478.59;;;22.91;45.27
48614;BME280;34408;51.426;5.444;2023-07-08T07:07:03;101472.81;;;22.93;45.38
48614;BME280;34408;51.426;5.444;2023-07-08T07:09:34;101476.09;;;22.95;45.34
48614;BME280;34408;51.426;5.444;2023-07-08T07:12:01;101475.78;;;22.96;45.11
48614;BME280;34408;51.426;5.444;2023-07-08T07:14:29;101467.28;;;22.98;45.48
48614;BME280;34408;51.426;5.444;2023-07-08T07:16:59;101474.13;;;23.00;45.58
48614;BME280;34408;51.426;5.444;2023-07-08T07:19:33;101472.19;;;23.01;45.74
48614;BME280;34408;51.426;5.444;2023-07-08T07:22:01;101482.06;;;23.02;45.67
48614;BME280;34408;51.426;5.444;2023-07-08T07:24:29;101475.47;;;23.03;45.85
48614;BME280;34408;51.426;5.444;2023-07-08T07:26:58;101474.06;;;23.05;45.69
48614;BME280;34408;51.426;5.444;2023-07-08T07:29:25;101478.97;;;23.09;46.22
48614;BME280;34408;51.426;5.444;2023-07-08T07:31:53;101479.50;;;23.11;46.60
48614;BME280;34408;51.426;5.444;2023-07-08T07:34:21;101480.84;;;23.13;46.26
48614;BME280;34408;51.426;5.444;2023-07-08T07:36:48;101481.34;;;23.15;46.08
48614;BME280;34408;51.426;5.444;2023-07-08T07:39:16;101476.69;;;23.16;46.02
48614;BME280;34408;51.426;5.444;2023-07-08T07:41:44;101482.72;;;23.18;46.25
48614;BME280;34408;51.426;5.444;2023-07-08T07:44:12;101480.50;;;23.20;45.98
48614;BME280;34408;51.426;5.444;2023-07-08T07:46:40;101476.63;;;23.21;46.20
48614;BME280;34408;51.426;5.444;2023-07-08T07:49:08;101472.78;;;23.22;46.00
48614;BME280;34408;51.426;5.444;2023-07-08T07:51:35;101472.50;;;23.23;45.95
48614;BME280;34408;51.426;5.444;2023-07-08T07:54:03;101472.72;;;23.27;46.14
48614;BME280;34408;51.426;5.444;2023-07-08T07:56:30;101476.81;;;23.29;46.63
48614;BME280;34408;51.426;5.444;2023-07-08T07:58:59;101474.59;;;23.31;46.72
48614;BME280;34408;51.426;5.444;2023-07-08T08:01:28;101474.31;;;23.33;46.61
48614;BME280;34408;51.426;5.444;2023-07-08T08:03:55;101469.34;;;23.35;46.30
48614;BME280;34408;51.426;5.444;2023-07-08T08:06:23;101470.97;;;23.36;46.58
48614;BME280;34408;51.426;5.444;2023-07-08T08:08:51;101472.31;;;23.38;46.36
48614;BME280;34408;51.426;5.444;2023-07-08T08:11:18;101481.91;;;23.41;46.53
48614;BME280;34408;51.426;5.444;2023-07-08T08:13:46;101483.53;;;23.42;46.73
48614;BME280;34408;51.426;5.444;2023-07-08T08:16:15;101484.06;;;23.44;46.34
48614;BME280;34408;51.426;5.444;2023-07-08T08:18:44;101486.50;;;23.46;46.78
48614;BME280;34408;51.426;5.444;2023-07-08T08:21:12;101480.72;;;23.47;46.42
48614;BME280;34408;51.426;5.444;2023-07-08T08:23:39;101486.44;;;23.51;46.82
48614;BME280;34408;51.426;5.444;2023-07-08T08:26:07;101484.22;;;23.53;46.64
48614;BME280;34408;51.426;5.444;2023-07-08T08:28:35;101486.41;;;23.56;46.82
48614;BME280;34408;51.426;5.444;2023-07-08T08:31:02;101495.16;;;23.58;46.64
48614;BME280;34408;51.426;5.444;2023-07-08T08:33:30;101481.16;;;23.59;46.90
48614;BME280;34408;51.426;5.444;2023-07-08T08:35:59;101492.38;;;23.63;46.62
48614;BME280;34408;51.426;5.444;2023-07-08T08:38:27;101492.06;;;23.64;46.51
48614;BME280;34408;51.426;5.444;2023-07-08T08:40:54;101492.59;;;23.66;46.98
48614;BME280;34408;51.426;5.444;2023-07-08T08:43:23;101496.38;;;23.71;46.60
48614;BME280;34408;51.426;5.444;2023-07-08T08:45:57;101499.88;;;23.76;46.80
48614;BME280;34408;51.426;5.444;2023-07-08T08:48:27;101498.19;;;23.80;46.63
48614;BME280;34408;51.426;5.444;2023-07-08T08:51:01;101503.06;;;23.83;46.64
48614;BME280;34408;51.426;5.444;2023-07-08T08:53:32;101507.97;;;23.86;46.92
48614;BME280;34408;51.426;5.444;2023-07-08T08:56:09;101507.69;;;23.88;46.89
48614;BME280;34408;51.426;5.444;2023-07-08T08:58:44;101513.41;;;23.91;46.62
48614;BME280;34408;51.426;5.444;2023-07-08T09:01:13;101515.56;;;23.94;46.66
48614;BME280;34408;51.426;5.444;2023-07-08T09:03:43;101505.31;;;24.00;46.72
48614;BME280;34408;51.426;5.444;2023-07-08T09:06:15;101513.78;;;24.04;46.67
48614;BME280;34408;51.426;5.444;2023-07-08T09:08:44;101507.69;;;24.07;46.95
48614;BME280;34408;51.426;5.444;2023-07-08T09:11:16;101495.00;;;24.11;46.67
48614;BME280;34408;51.426;5.444;2023-07-08T09:13:46;101493.31;;;24.15;46.99
48614;BME280;34408;51.426;5.444;2023-07-08T09:16:15;101480.97;;;24.12;46.67
48614;BME280;34408;51.426;5.444;2023-07-08T09:18:55;101490.69;;;24.23;46.57
48614;BME280;34408;51.426;5.444;2023-07-08T09:21:25;101492.56;;;24.28;46.44
48614;BME280;34408;51.426;5.444;2023-07-08T09:23:55;101490.31;;;24.30;46.76
48614;BME280;34408;51.426;5.444;2023-07-08T09:26:27;101494.41;;;24.32;46.81
48614;BME280;34408;51.426;5.444;2023-07-08T09:28:56;101493.00;;;24.35;46.51
48614;BME280;34408;51.426;5.444;2023-07-08T09:31:24;101492.91;;;24.40;46.89
48614;BME280;34408;51.426;5.444;2023-07-08T09:33:52;101484.59;;;24.45;46.53
48614;BME280;34408;51.426;5.444;2023-07-08T09:36:22;101473.31;;;24.47;46.43
48614;BME280;34408;51.426;5.444;2023-07-08T09:38:51;101468.03;;;24.50;46.37
48614;BME280;34408;51.426;5.444;2023-07-08T09:41:32;101469.34;;;24.53;46.21
48614;BME280;34408;51.426;5.444;2023-07-08T09:46:49;101472.31;;;24.56;46.34
48614;BME280;34408;51.426;5.444;2023-07-08T09:49:18;101474.47;;;24.59;45.96
48614;BME280;34408;51.426;5.444;2023-07-08T09:51:47;101477.13;;;24.64;46.07
48614;BME280;34408;51.426;5.444;2023-07-08T09:54:18;101479.28;;;24.67;45.80
48614;BME280;34408;51.426;5.444;2023-07-08T09:56:49;101472.34;;;24.70;45.82
48614;BME280;34408;51.426;5.444;2023-07-08T09:59:19;101472.56;;;24.74;45.97
48614;BME280;34408;51.426;5.444;2023-07-08T10:01:49;101477.97;;;24.79;46.06
48614;BME280;34408;51.426;5.444;2023-07-08T10:04:17;101469.13;;;24.82;45.82
48614;BME280;34408;51.426;5.444;2023-07-08T10:06:45;101474.53;;;24.87;45.97
48614;BME280;34408;51.426;5.444;2023-07-08T10:09:18;101473.31;;;24.93;46.07
48614;BME280;34408;51.426;5.444;2023-07-08T10:11:51;101482.31;;;24.98;46.00
48614;BME280;34408;51.426;5.444;2023-07-08T10:14:22;101481.13;;;25.05;46.03
48614;BME280;34408;51.426;5.444;2023-07-08T10:16:52;101475.22;;;25.11;46.00
48614;BME280;34408;51.426;5.444;2023-07-08T10:19:20;101464.41;;;25.15;46.00
48614;BME280;34408;51.426;5.444;2023-07-08T10:21:51;101472.25;;;25.21;46.29
48614;BME280;34408;51.426;5.444;2023-07-08T10:24:29;101469.94;;;25.28;46.12
48614;BME280;34408;51.426;5.444;2023-07-08T10:27:02;101472.88;;;25.32;45.87
48614;BME280;34408;51.426;5.444;2023-07-08T10:29:32;101476.66;;;25.36;45.65
48614;BME280;34408;51.426;5.444;2023-07-08T10:32:07;101469.41;;;25.40;45.67
48614;BME280;34408;51.426;5.444;2023-07-08T10:34:37;101476.44;;;25.46;45.69
48614;BME280;34408;51.426;5.444;2023-07-08T10:37:10;101476.53;;;25.55;45.49
48614;BME280;34408;51.426;5.444;2023-07-08T10:39:45;101481.63;;;25.61;45.21
48614;BME280;34408;51.426;5.444;2023-07-08T10:42:21;101473.00;;;25.68;45.51
48614;BME280;34408;51.426;5.444;2023-07-08T10:44:59;101485.22;;;25.76;45.42
48614;BME280;34408;51.426;5.444;2023-07-08T10:47:35;101485.91;;;25.81;45.31
48614;BME280;34408;51.426;5.444;2023-07-08T10:50:20;101481.13;;;25.87;45.40
48614;BME280;34408;51.426;5.444;2023-07-08T10:52:56;101487.22;;;25.98;45.23
48614;BME280;34408;51.426;5.444;2023-07-08T10:55:32;101481.75;;;26.06;45.13
48614;BME280;34408;51.426;5.444;2023-07-08T10:58:14;101478.56;;;26.13;44.72
48614;BME280;34408;51.426;5.444;2023-07-08T11:00:48;101475.06;;;26.21;44.95
48614;BME280;34408;51.426;5.444;2023-07-08T11:03:45;101472.69;;;26.28;44.93
48614;BME280;34408;51.426;5.444;2023-07-08T11:06:17;101475.56;;;26.37;44.38
48614;BME280;34408;51.426;5.444;2023-07-08T11:08:46;101466.53;;;26.45;44.12
48614;BME280;34408;51.426;5.444;2023-07-08T11:11:18;101469.66;;;26.52;44.60
48614;BME280;34408;51.426;5.444;2023-07-08T11:13:52;101475.22;;;26.61;45.12
48614;BME280;34408;51.426;5.444;2023-07-08T11:16:22;101464.56;;;26.68;44.75
48614;BME280;34408;51.426;5.444;2023-07-08T11:18:52;101457.94;;;26.69;44.35
48614;BME280;34408;51.426;5.444;2023-07-08T11:21:22;101468.97;;;26.69;43.91
48614;BME280;34408;51.426;5.444;2023-07-08T11:23:52;101467.19;;;26.73;43.97
48614;BME280;34408;51.426;5.444;2023-07-08T11:26:23;101467.56;;;26.80;44.23
48614;BME280;34408;51.426;5.444;2023-07-08T11:28:56;101473.94;;;26.89;44.92
48614;BME280;34408;51.426;5.444;2023-07-08T11:31:25;101470.44;;;26.97;44.43
48614;BME280;34408;51.426;5.444;2023-07-08T11:33:53;101463.66;;;27.03;44.26
48614;BME280;34408;51.426;5.444;2023-07-08T11:36:23;101460.56;;;27.05;44.16
48614;BME280;34408;51.426;5.444;2023-07-08T11:38:53;101452.97;;;27.10;44.10
48614;BME280;34408;51.426;5.444;2023-07-08T11:41:21;101447.50;;;27.19;43.83
48614;BME280;34408;51.426;5.444;2023-07-08T11:43:50;101456.44;;;27.25;43.73
48614;BME280;34408;51.426;5.444;2023-07-08T11:46:21;101446.88;;;27.31;44.06
48614;BME280;34408;51.426;5.444;2023-07-08T11:48:52;101451.94;;;27.37;44.13
48614;BME280;34408;51.426;5.444;2023-07-08T11:51:22;101438.78;;;27.43;43.89
48614;BME280;34408;51.426;5.444;2023-07-08T11:53:51;101446.94;;;27.48;43.96
48614;BME280;34408;51.426;5.444;2023-07-08T11:56:25;101452.78;;;27.55;43.68
48614;BME280;34408;51.426;5.444;2023-07-08T12:01:39;101451.88;;;27.85;39.95
48614;BME280;34408;51.426;5.444;2023-07-08T12:04:20;101453.50;;;27.95;40.89
48614;BME280;34408;51.426;5.444;2023-07-08T12:06:53;101442.28;;;28.00;42.34
48614;BME280;34408;51.426;5.444;2023-07-08T12:09:25;101441.97;;;28.02;42.47
48614;BME280;34408;51.426;5.444;2023-07-08T12:11:54;101435.94;;;28.00;42.24
48614;BME280;34408;51.426;5.444;2023-07-08T12:14:22;101432.38;;;27.99;42.01
48614;BME280;34408;51.426;5.444;2023-07-08T12:16:51;101429.59;;;27.99;41.92
48614;BME280;34408;51.426;5.444;2023-07-08T12:19:20;101436.44;;;28.02;42.23
48614;BME280;34408;51.426;5.444;2023-07-08T12:21:48;101433.03;;;28.05;42.63
48614;BME280;34408;51.426;5.444;2023-07-08T12:24:17;101430.91;;;28.10;43.06
48614;BME280;34408;51.426;5.444;2023-07-08T12:26:45;101424.41;;;28.15;43.15
48614;BME280;34408;51.426;5.444;2023-07-08T12:29:12;101423.41;;;28.19;43.01
48614;BME280;34408;51.426;5.444;2023-07-08T12:31:40;101423.91;;;28.22;42.20
48614;BME280;34408;51.426;5.444;2023-07-08T12:34:11;101426.34;;;28.40;38.93
48614;BME280;34408;51.426;5.444;2023-07-08T12:36:40;101423.19;;;28.68;37.82
48614;BME280;34408;51.426;5.444;2023-07-08T12:39:10;101420.53;;;28.80;40.02
48614;BME280;34408;51.426;5.444;2023-07-08T12:41:39;101423.50;;;28.83;41.45
48614;BME280;34408;51.426;5.444;2023-07-08T12:44:08;101420.22;;;28.81;41.35
48614;BME280;34408;51.426;5.444;2023-07-08T12:46:41;101413.56;;;28.82;41.82
48614;BME280;34408;51.426;5.444;2023-07-08T12:49:08;101416.97;;;28.88;41.94
48614;BME280;34408;51.426;5.444;2023-07-08T12:51:38;101411.25;;;28.93;42.69
48614;BME280;34408;51.426;5.444;2023-07-08T12:54:09;101413.03;;;28.98;42.76
48614;BME280;34408;51.426;5.444;2023-07-08T12:56:37;101413.50;;;29.00;42.35
48614;BME280;34408;51.426;5.444;2023-07-08T12:59:05;101409.25;;;29.02;42.50
48614;BME280;34408;51.426;5.444;2023-07-08T13:01:33;101415.75;;;29.06;42.74
48614;BME280;34408;51.426;5.444;2023-07-08T13:04:03;101413.59;;;29.12;42.54
48614;BME280;34408;51.426;5.444;2023-07-08T13:06:32;101411.78;;;29.16;42.34
48614;BME280;34408;51.426;5.444;2023-07-08T13:09:05;101399.09;;;29.15;41.47